Time;durP1;ratioP1;P1;durP2;ratioP2;P2;SDS_P1;SDS_P2;PMS_P1;PMS_P2;Temp;Humidity;BMP_temperature;BMP_pressure;BME280_temperature;BME280_humidity;BME280_pressure;Samples;Min_cycle;Max_cycle;Signal;HPM_P1;HPM_P2
2022/06/18 00:02:41;;;;;;;4.57;2.90;;;17.00;1.00;;;;;;10279682;28;20194;-84
2022/06/18 00:08:07;;;;;;;5.60;3.50;;;16.80;1.00;;;;;;10252073;28;20210;-84
2022/06/18 00:13:40;;;;;;;3.97;2.50;;;16.70;1.00;;;;;;10278952;28;20285;-83
2022/06/18 00:19:01;;;;;;;6.10;2.35;;;16.70;1.00;;;;;;10265198;28;20294;-84
2022/06/18 00:24:24;;;;;;;2.53;1.85;;;16.70;1.00;;;;;;10265181;28;20217;-84
2022/06/18 00:29:46;;;;;;;4.03;2.35;;;16.70;1.00;;;;;;10301490;28;20202;-84
2022/06/18 00:35:08;;;;;;;5.82;2.75;;;16.60;1.00;;;;;;10304489;28;20202;-83
2022/06/18 00:40:34;;;;;;;4.28;2.53;;;16.60;1.00;;;;;;10304291;28;20241;-84
2022/06/18 00:46:06;;;;;;;3.92;2.72;;;16.60;1.00;;;;;;10304448;28;20206;-84
2022/06/18 00:51:38;;;;;;;4.50;2.53;;;16.60;1.00;;;;;;10300136;28;20207;-83
2022/06/18 00:57:14;;;;;;;3.22;2.30;;;16.50;1.00;;;;;;10277116;28;20567;-84
2022/06/18 01:02:39;;;;;;;6.88;2.78;;;16.40;1.00;;;;;;10277445;28;20419;-83
2022/06/18 01:08:05;;;;;;;4.15;2.40;;;16.40;1.00;;;;;;10263234;28;20205;-84
2022/06/18 01:13:35;;;;;;;3.35;1.92;;;16.30;1.00;;;;;;10263061;28;20217;-84
2022/06/18 01:19:02;;;;;;;3.78;2.10;;;16.30;1.00;;;;;;10264129;28;20542;-83
2022/06/18 01:24:38;;;;;;;2.28;2.00;;;16.20;1.00;;;;;;10283768;28;20198;-83
2022/06/18 01:30:17;;;;;;;5.25;1.98;;;16.30;1.00;;;;;;10309860;28;20209;-84
2022/06/18 01:35:47;;;;;;;3.05;2.05;;;16.20;1.00;;;;;;10316334;28;20394;-84
2022/06/18 01:41:51;;;;;;;3.17;1.98;;;16.30;1.00;;;;;;10302016;28;20237;-83
2022/06/18 01:47:52;;;;;;;2.55;1.95;;;16.30;1.00;;;;;;10177017;29;20223;-84
2022/06/18 01:53:21;;;;;;;2.97;2.22;;;16.30;1.00;;;;;;10159124;29;20239;-83
2022/06/18 01:58:49;;;;;;;2.30;1.63;;;16.30;1.00;;;;;;10154622;29;20315;-84
2022/06/18 02:04:23;;;;;;;2.03;1.88;;;16.20;1.00;;;;;;10138944;29;20295;-84
2022/06/18 02:09:59;;;;;;;3.85;2.22;;;16.30;1.00;;;;;;10151974;29;20228;-84
2022/06/18 02:15:29;;;;;;;6.00;2.50;;;16.20;1.00;;;;;;10125288;29;20216;-84
2022/06/18 02:20:53;;;;;;;2.90;2.30;;;16.10;1.00;;;;;;10237205;28;20269;-84
2022/06/18 02:26:14;;;;;;;5.72;2.30;;;16.20;1.00;;;;;;10269783;28;20199;-84
2022/06/18 02:31:38;;;;;;;2.92;2.10;;;16.20;1.00;;;;;;10300068;28;20207;-83
2022/06/18 02:37:04;;;;;;;3.63;2.20;;;16.10;1.00;;;;;;10314275;28;20373;-84
2022/06/18 02:42:28;;;;;;;2.80;2.00;;;16.00;1.00;;;;;;10300470;28;20209;-83
2022/06/18 02:47:51;;;;;;;3.50;2.55;;;16.00;1.00;;;;;;10300136;28;20419;-83
2022/06/18 02:53:13;;;;;;;4.60;2.25;;;16.00;1.00;;;;;;10296249;28;20210;-84
2022/06/18 02:58:42;;;;;;;3.35;2.58;;;16.00;1.00;;;;;;10260225;28;20405;-84
2022/06/18 03:04:05;;;;;;;3.45;2.40;;;16.00;1.00;;;;;;10273985;28;20199;-84
2022/06/18 03:09:27;;;;;;;2.38;2.15;;;16.10;1.00;;;;;;10246626;28;20212;-83
2022/06/18 03:14:48;;;;;;;2.70;2.25;;;16.10;1.00;;;;;;10289331;28;20207;-83
2022/06/18 03:20:16;;;;;;;3.35;2.47;;;16.10;1.00;;;;;;10273692;28;20259;-84
2022/06/18 03:25:37;;;;;;;3.50;2.63;;;16.20;1.00;;;;;;10263203;28;20197;-84
2022/06/18 03:31:02;;;;;;;2.60;2.40;;;16.20;1.00;;;;;;10313270;28;20199;-84
2022/06/18 03:36:25;;;;;;;3.55;2.50;;;16.20;1.00;;;;;;10313028;28;20208;-84
2022/06/18 03:41:47;;;;;;;5.03;2.70;;;16.20;1.00;;;;;;10303267;28;20381;-84
2022/06/18 03:47:09;;;;;;;2.70;2.10;;;16.20;1.00;;;;;;10306378;28;20206;-83
2022/06/18 03:52:33;;;;;;;3.40;2.30;;;16.30;1.00;;;;;;10293533;28;20203;-83
2022/06/18 03:57:54;;;;;;;12.25;7.07;;;16.30;1.00;;;;;;10265327;28;20255;-84
2022/06/18 04:03:16;;;;;;;8.35;4.75;;;16.20;1.00;;;;;;10266017;28;20208;-83
2022/06/18 04:08:39;;;;;;;4.03;3.20;;;16.30;3.00;;;;;;10279348;28;20262;-84
2022/06/18 04:14:12;;;;;;;4.38;2.83;;;16.30;1.00;;;;;;10253328;28;20202;-85
2022/06/18 04:19:49;;;;;;;4.72;3.10;;;16.30;1.00;;;;;;10265295;28;20246;-83
2022/06/18 04:25:11;;;;;;;5.55;3.58;;;16.30;1.90;;;;;;10265299;28;20210;-83
2022/06/18 04:30:33;;;;;;;4.72;3.00;;;16.40;1.00;;;;;;10304595;28;20207;-83
2022/06/18 04:36:35;;;;;;;3.10;2.28;;;16.40;1.00;;;;;;10317956;28;20205;-83
2022/06/18 04:42:12;;;;;;;3.35;2.42;;;16.50;1.00;;;;;;10304226;28;20222;-84
2022/06/18 04:47:35;;;;;;;2.55;2.30;;;16.60;17.50;;;;;;10314649;28;20394;-84
2022/06/18 04:52:57;;;;;;;3.92;2.85;;;16.70;1.00;;;;;;10287869;28;20215;-85
2022/06/18 04:58:19;;;;;;;3.20;2.40;;;16.60;1.00;;;;;;10263660;28;20249;-85
2022/06/18 05:03:48;;;;;;;5.25;2.22;;;16.70;1.00;;;;;;10263873;28;20203;-85
2022/06/18 05:09:33;;;;;;;2.10;1.75;;;16.90;1.00;;;;;;10235840;29;20291;-84
2022/06/18 05:15:12;;;;;;;3.30;1.92;;;17.00;1.00;;;;;;10221672;29;20324;-85
2022/06/18 05:20:35;;;;;;;2.20;1.80;;;17.30;1.00;;;;;;10221422;29;20235;-84
2022/06/18 05:26:00;;;;;;;2.75;1.88;;;17.60;1.00;;;;;;10207853;29;20227;-84
2022/06/18 05:31:22;;;;;;;2.83;2.10;;;17.90;1.00;;;;;;10220964;29;20302;-84
2022/06/18 05:36:43;;;;;;;1.98;1.52;;;18.10;1.00;;;;;;10205043;29;20219;-85
2022/06/18 05:42:10;;;;;;;2.15;1.70;;;18.40;1.00;;;;;;10204581;29;20373;-84
2022/06/18 05:47:32;;;;;;;2.20;1.73;;;18.60;1.00;;;;;;10276421;28;20203;-85
2022/06/18 05:52:53;;;;;;;3.40;1.80;;;18.90;1.00;;;;;;10264995;28;20243;-85
2022/06/18 05:58:41;;;;;;;2.95;2.03;;;19.20;1.00;;;;;;10210857;29;20264;-85
2022/06/18 06:04:19;;;;;;;3.30;2.20;;;19.40;1.00;;;;;;10181474;29;20228;-85
2022/06/18 06:15:26;;;;;;;4.43;1.88;;;19.50;1.00;;;;;;10193948;29;20204;-84
2022/06/18 06:20:50;;;;;;;1.77;1.30;;;19.80;1.00;;;;;;10179922;29;20299;-85
2022/06/18 06:26:26;;;;;;;2.92;1.92;;;20.00;1.00;;;;;;10179743;29;20208;-85
2022/06/18 06:31:48;;;;;;;2.53;1.75;;;20.20;1.00;;;;;;10196722;29;20200;-85
2022/06/18 06:37:10;;;;;;;2.67;1.60;;;20.40;1.00;;;;;;10260822;28;20209;-85
2022/06/18 06:42:49;;;;;;;6.82;1.70;;;20.60;1.00;;;;;;10248032;28;20234;-86
2022/06/18 06:48:10;;;;;;;5.93;1.42;;;20.80;1.00;;;;;;10247286;28;20213;-84
2022/06/18 06:53:32;;;;;;;4.65;1.58;;;21.00;1.00;;;;;;10287403;28;20203;-85
2022/06/18 06:58:53;;;;;;;4.05;1.58;;;21.20;1.00;;;;;;10261132;28;20231;-85
2022/06/18 07:04:15;;;;;;;2.67;1.70;;;21.00;1.00;;;;;;10260895;28;20201;-85
2022/06/18 07:09:37;;;;;;;2.88;2.00;;;21.10;1.00;;;;;;10260177;28;20207;-85
2022/06/18 07:15:00;;;;;;;3.50;1.83;;;21.10;1.00;;;;;;10285175;28;20486;-84
2022/06/18 07:20:22;;;;;;;4.07;2.50;;;21.00;1.00;;;;;;10281156;28;20255;-84
2022/06/18 07:25:44;;;;;;;2.55;1.85;;;21.10;1.00;;;;;;10285189;28;20433;-85
2022/06/18 07:31:05;;;;;;;4.40;2.10;;;21.20;1.00;;;;;;10307443;28;20368;-86
2022/06/18 07:36:27;;;;;;;6.57;2.10;;;21.20;1.00;;;;;;10320682;28;20203;-85
2022/06/18 07:41:53;;;;;;;5.60;2.17;;;21.40;1.00;;;;;;10306515;28;20230;-85
2022/06/18 07:47:17;;;;;;;3.20;1.50;;;21.40;1.00;;;;;;10293466;28;20198;-85
2022/06/18 07:52:40;;;;;;;3.83;1.58;;;21.40;99.90;;;;;;10306275;28;20262;-85
2022/06/18 07:58:01;;;;;;;2.95;1.95;;;21.30;99.90;;;;;;10279722;28;20568;-85
2022/06/18 08:03:24;;;;;;;3.85;2.05;;;21.40;99.90;;;;;;10280168;28;20217;-85
2022/06/18 08:08:46;;;;;;;3.42;1.95;;;21.40;99.90;;;;;;10266228;28;20429;-85
2022/06/18 08:14:08;;;;;;;2.70;1.70;;;21.60;99.90;;;;;;10261033;28;20294;-86
2022/06/18 08:19:29;;;;;;;2.97;1.90;;;21.80;99.90;;;;;;10265271;28;20235;-85
2022/06/18 08:24:51;;;;;;;2.40;1.52;;;22.00;1.00;;;;;;10265381;28;20490;-85
2022/06/18 08:30:13;;;;;;;6.93;2.00;;;22.20;14.50;;;;;;10251901;28;20282;-85
2022/06/18 08:35:37;;;;;;;3.40;2.00;;;22.40;83.30;;;;;;10251562;28;20226;-85
2022/06/18 08:40:59;;;;;;;6.50;2.10;;;22.90;82.60;;;;;;10265144;28;20241;-85
2022/06/18 08:46:32;;;;;;;16.25;2.17;;;23.40;74.70;;;;;;10251533;28;20199;-85
2022/06/18 08:52:11;;;;;;;4.95;1.65;;;24.20;61.00;;;;;;10250882;28;20215;-86
2022/06/18 08:57:46;;;;;;;5.15;2.10;;;24.80;53.80;;;;;;10265086;28;20243;-85
2022/06/18 09:03:31;;;;;;;4.07;1.80;;;25.10;47.00;;;;;;10250331;28;20279;-85
2022/06/18 09:09:17;;;;;;;5.35;1.95;;;25.40;43.80;;;;;;10263688;28;20231;-85
2022/06/18 09:14:55;;;;;;;11.13;2.33;;;25.90;39.00;;;;;;10261805;28;20226;-86
2022/06/18 09:20:35;;;;;;;4.53;1.73;;;25.70;36.50;;;;;;10262968;28;20230;-85
2022/06/18 09:25:58;;;;;;;4.85;1.40;;;25.30;37.00;;;;;;10268698;28;20292;-85
2022/06/18 09:31:36;;;;;;;4.03;2.17;;;25.20;37.50;;;;;;10302430;28;20214;-86
2022/06/18 09:37:25;;;;;;;5.45;2.03;;;24.90;40.70;;;;;;10317971;28;20230;-86
2022/06/18 09:42:53;;;;;;;8.55;1.90;;;24.60;44.10;;;;;;10313812;28;20237;-85
2022/06/18 09:48:15;;;;;;;2.75;1.67;;;24.50;39.80;;;;;;10301737;28;20263;-86
2022/06/18 09:53:40;;;;;;;2.85;1.83;;;24.30;41.50;;;;;;10294602;28;20203;-86
2022/06/18 09:59:14;;;;;;;3.33;1.75;;;24.30;42.50;;;;;;10262062;28;20449;-85
2022/06/18 10:10:25;;;;;;;4.15;2.08;;;24.60;44.40;;;;;;10261558;28;20207;-85
2022/06/18 10:15:47;;;;;;;9.20;3.15;;;25.10;42.30;;;;;;10261643;28;20199;-85
2022/06/18 10:21:30;;;;;;;2.72;1.95;;;25.80;37.80;;;;;;10263058;28;20238;-86
2022/06/18 10:27:10;;;;;;;3.80;1.77;;;26.20;34.10;;;;;;10291994;28;20236;-85
2022/06/18 10:33:05;;;;;;;2.95;1.83;;;26.20;30.70;;;;;;10287536;28;20241;-85
2022/06/18 10:38:47;;;;;;;7.25;2.25;;;26.60;30.20;;;;;;10301000;28;20237;-85
2022/06/18 10:44:14;;;;;;;2.95;1.90;;;27.90;24.80;;;;;;10192593;29;20519;-86
2022/06/18 10:49:36;;;;;;;44.08;5.65;;;28.10;22.60;;;;;;10192561;29;20223;-85
2022/06/18 10:55:14;;;;;;;20.58;2.53;;;;;;;;;;10161140;29;20491;-86
2022/06/18 11:00:39;;;;;;;4.55;1.90;;;;;;;;;;10159734;29;20257;-86
2022/06/18 11:06:12;;;;;;;4.15;2.10;;;29.90;99.90;;;;;;10145527;29;20570;-86
2022/06/18 11:11:36;;;;;;;5.75;1.40;;;29.50;99.90;;;;;;10147418;29;20213;-86
2022/06/18 11:16:58;;;;;;;12.27;2.28;;;29.10;1.00;;;;;;10119087;29;20214;-86
2022/06/18 11:22:27;;;;;;;6.57;1.60;;;28.90;1.00;;;;;;10243828;29;20235;-86
2022/06/18 11:27:49;;;;;;;5.50;2.20;;;28.60;1.00;;;;;;10244002;29;20419;-86
2022/06/18 11:33:34;;;;;;;9.00;2.20;;;28.50;1.00;;;;;;10241028;29;20210;-86
2022/06/18 11:38:58;;;;;;;3.85;1.55;;;28.30;1.00;;;;;;10243374;29;20307;-86
2022/06/18 11:50:52;;;;;;;2.67;1.42;;;28.50;1.00;;;;;;10240598;29;20200;-86
2022/06/18 11:56:54;;;;;;;11.95;1.75;;;28.90;1.00;;;;;;10272822;28;20306;-86
2022/06/18 12:02:24;;;;;;;2.28;1.35;;;29.60;1.00;;;;;;10257493;28;20243;-86
2022/06/18 12:07:55;;;;;;;5.03;1.42;;;29.80;1.00;;;;;;10280336;28;20243;-86
2022/06/18 12:13:32;;;;;;;39.67;3.45;;;30.10;1.00;;;;;;10265380;28;20393;-86
2022/06/18 12:19:02;;;;;;;7.20;2.40;;;30.30;1.00;;;;;;10265459;28;20230;-86
2022/06/18 12:25:06;;;;;;;2.75;1.75;;;30.50;1.00;;;;;;10279261;28;20247;-86
2022/06/18 12:30:38;;;;;;;7.88;1.50;;;30.60;1.00;;;;;;10282462;28;20392;-86
2022/06/18 12:36:14;;;;;;;5.55;1.80;;;30.90;99.90;;;;;;10264861;28;20211;-86
2022/06/18 12:41:43;;;;;;;3.30;1.80;;;30.70;1.00;;;;;;10278033;28;20235;-86
2022/06/18 12:47:14;;;;;;;25.85;3.17;;;;;;;;;;10251726;28;20265;-86
2022/06/18 12:52:37;;;;;;;4.90;1.45;;;30.60;99.90;;;;;;10265115;28;20211;-86
2022/06/18 12:58:15;;;;;;;4.18;1.88;;;30.00;99.90;;;;;;10278523;28;20552;-86
2022/06/18 13:04:17;;;;;;;4.88;1.83;;;29.50;99.90;;;;;;10264189;28;20214;-86
2022/06/18 13:09:52;;;;;;;5.15;1.70;;;29.40;99.90;;;;;;10180522;29;20219;-86
2022/06/18 13:15:42;;;;;;;8.88;3.05;;;30.00;99.90;;;;;;10193894;29;20209;-86
2022/06/18 13:21:08;;;;;;;7.03;2.15;;;30.50;99.90;;;;;;10188584;29;20240;-86
2022/06/18 13:33:06;;;;;;;25.08;2.75;;;30.50;99.90;;;;;;10036349;29;20278;-85
2022/06/18 13:38:43;;;;;;;59.00;5.00;;;30.40;99.90;;;;;;10043283;29;20223;-86
2022/06/18 13:44:49;;;;;;;9.02;2.45;;;30.10;99.90;;;;;;10104861;29;20285;-86
2022/06/18 13:50:22;;;;;;;7.70;3.05;;;30.00;99.90;;;;;;10111433;29;20221;-87
2022/06/18 13:55:44;;;;;;;7.10;2.38;;;29.80;99.90;;;;;;10094892;29;20261;-86
2022/06/18 14:01:17;;;;;;;26.90;2.83;;;29.70;99.90;;;;;;10072207;29;20261;-86
2022/06/18 14:06:50;;;;;;;39.38;4.43;;;29.90;99.90;;;;;;10125072;29;20212;-87
2022/06/18 14:12:23;;;;;;;14.48;2.72;;;29.90;99.90;;;;;;10213583;29;20234;-86
2022/06/18 14:17:48;;;;;;;5.15;2.47;;;29.60;99.90;;;;;;10261548;28;20196;-86
2022/06/18 14:23:36;;;;;;;4.40;2.30;;;29.40;99.90;;;;;;10260482;28;20211;-86
2022/06/18 14:29:00;;;;;;;10.98;2.78;;;29.00;99.90;;;;;;10293191;28;20261;-86
2022/06/18 14:34:44;;;;;;;9.25;3.50;;;28.70;99.90;;;;;;10288310;28;20198;-85
2022/06/18 14:40:11;;;;;;;10.50;2.80;;;28.70;99.90;;;;;;10321211;28;20222;-86
2022/06/18 14:45:34;;;;;;;8.82;2.67;;;28.90;99.90;;;;;;10320940;28;20269;-86
2022/06/18 14:51:38;;;;;;;7.28;2.67;;;28.90;99.90;;;;;;10300215;28;20211;-86
2022/06/18 14:57:51;;;;;;;4.25;2.10;;;28.60;99.90;;;;;;10286212;28;20239;-86
2022/06/18 15:03:16;;;;;;;9.00;2.30;;;;;;;;;;10161899;29;20217;-86
2022/06/18 15:08:38;;;;;;;11.18;2.70;;;;;;;;;;10131768;29;20224;-86
2022/06/18 15:14:01;;;;;;;6.53;2.70;;;;;;;;;;10139818;29;20212;-85
2022/06/18 15:19:31;;;;;;;206.02;14.68;;;;;;;;;;10130618;29;20244;-86
2022/06/18 15:30:47;;;;;;;7.60;2.38;;;;;;;;;;10144094;29;20520;-86
2022/06/18 15:36:21;;;;;;;6.85;2.80;;;;;;;;;;10183710;28;20211;-85
2022/06/18 15:41:47;;;;;;;4.80;2.60;;;;;;;;;;10267408;28;20236;-86
2022/06/18 15:47:19;;;;;;;4.78;2.78;;;;;;;;;;10267560;28;20195;-86
2022/06/18 15:52:41;;;;;;;8.32;3.50;;;;;;;;;;10252961;28;20460;-86
2022/06/18 15:58:03;;;;;;;6.57;3.65;;;;;;;;;;10266338;28;20301;-86
2022/06/18 16:03:26;;;;;;;4.10;2.55;;;;;;;;;;10280700;28;20222;-86
2022/06/18 16:09:08;;;;;;;6.65;2.42;;;;;;;;;;10279835;28;20270;-86
2022/06/18 16:14:31;;;;;;;2.97;2.33;;;;;;;;;;10265853;28;20199;-86
2022/06/18 16:19:56;;;;;;;8.55;3.13;;;;;;;;;;10265341;28;20306;-86
2022/06/18 16:25:19;;;;;;;2.80;2.33;;;;;;;;;;10266329;28;20453;-85
2022/06/18 16:30:41;;;;;;;4.72;2.13;;;;;;;;;;10323035;28;20191;-85
2022/06/18 16:36:05;;;;;;;6.68;2.42;;;;;;;;;;10306751;28;20203;-85
2022/06/18 16:41:33;;;;;;;6.00;2.58;;;;;;;;;;10307470;28;20222;-86
2022/06/18 16:46:54;;;;;;;3.78;2.28;;;;;;;;;;10323500;28;20214;-85
2022/06/18 16:52:17;;;;;;;4.18;2.35;;;;;;;;;;10299224;28;20231;-85
2022/06/18 16:57:39;;;;;;;5.53;2.20;;;;;;;;;;10265300;28;20263;-85
2022/06/18 17:03:03;;;;;;;3.78;2.17;;;;;;;;;;10275758;28;20521;-86
2022/06/18 17:08:25;;;;;;;4.90;2.58;;;;;;;;;;10302436;28;20212;-86
2022/06/18 17:13:48;;;;;;;3.83;2.63;;;;;;;;;;10267955;28;20203;-86
2022/06/18 17:19:15;;;;;;;4.72;2.78;;;;;;;;;;10296275;28;20235;-85
2022/06/18 17:36:02;;;;;;;4.40;2.83;;;;;;;;;;10287510;28;20199;-86
2022/06/18 17:41:24;;;;;;;6.32;2.83;;;;;;;;;;10274464;28;20227;-85
2022/06/18 17:46:46;;;;;;;5.60;3.45;;;;;;;;;;10260595;28;20274;-86
2022/06/18 17:52:11;;;;;;;5.90;3.10;;;;;;;;;;10255942;28;20211;-86
2022/06/18 18:02:25;;;;;;;7.68;3.15;;;24.70;1.00;;;;;;10560506;28;20547;-85
2022/06/18 18:07:47;;;;;;;5.05;2.90;;;24.50;1.00;;;;;;10552370;28;20272;-85
2022/06/18 18:13:09;;;;;;;4.90;2.70;;;24.40;1.00;;;;;;10553914;28;20423;-85
2022/06/18 18:18:33;;;;;;;5.55;2.75;;;24.20;99.90;;;;;;10569854;28;20229;-85
2022/06/18 18:24:00;;;;;;;4.00;2.72;;;24.10;1.00;;;;;;10550484;28;20269;-84
2022/06/18 18:29:22;;;;;;;3.88;2.35;;;23.90;1.00;;;;;;10569054;28;20221;-85
2022/06/18 18:34:43;;;;;;;4.70;2.38;;;23.70;1.00;;;;;;10574453;28;20213;-85
2022/06/18 18:40:06;;;;;;;5.95;2.85;;;23.60;1.00;;;;;;10576852;28;20228;-85
2022/06/18 18:45:29;;;;;;;8.38;2.63;;;23.40;99.90;;;;;;10585072;28;20190;-84
2022/06/18 18:50:53;;;;;;;6.00;2.95;;;23.30;1.00;;;;;;10590724;28;20217;-84
2022/06/18 18:56:31;;;;;;;4.50;3.05;;;23.30;99.90;;;;;;10512556;28;20256;-84
2022/06/18 19:01:53;;;;;;;8.52;2.80;;;23.10;1.00;;;;;;10541144;28;20226;-85
2022/06/18 19:07:15;;;;;;;8.38;2.58;;;23.00;1.00;;;;;;10565200;28;20191;-84
2022/06/18 19:18:29;;;;;;;5.88;2.58;;;22.70;99.90;;;;;;10567697;28;20210;-85
2022/06/18 19:23:53;;;;;;;4.60;2.65;;;22.40;1.00;;;;;;10552362;28;20205;-84
2022/06/18 19:29:15;;;;;;;3.88;2.50;;;22.20;99.90;;;;;;10572083;28;20478;-85
2022/06/18 19:34:37;;;;;;;5.15;2.50;;;22.00;1.00;;;;;;10575307;28;20187;-84
2022/06/18 19:39:59;;;;;;;6.78;2.85;;;21.80;99.90;;;;;;10558446;28;20299;-85
2022/06/18 19:45:22;;;;;;;6.68;2.45;;;21.60;1.00;;;;;;10557987;28;20205;-85
2022/06/18 19:50:44;;;;;;;5.60;2.53;;;21.50;1.00;;;;;;10548358;28;20210;-84
2022/06/18 19:56:05;;;;;;;6.68;3.20;;;21.40;99.90;;;;;;10491446;28;20207;-85
2022/06/18 20:01:28;;;;;;;4.07;3.00;;;21.30;99.90;;;;;;10517454;28;20246;-84
2022/06/18 20:06:51;;;;;;;7.85;3.22;;;21.10;99.90;;;;;;10547016;28;20191;-85
2022/06/18 20:12:16;;;;;;;4.97;3.03;;;21.10;99.90;;;;;;10518267;28;20221;-85
2022/06/18 20:17:39;;;;;;;3.00;2.58;;;21.00;1.00;;;;;;10515924;28;20230;-84
2022/06/18 20:23:00;;;;;;;4.95;2.55;;;20.90;1.00;;;;;;10503871;28;20199;-84
2022/06/18 20:28:22;;;;;;;5.40;2.72;;;20.80;1.00;;;;;;10516489;28;20239;-85
2022/06/18 20:33:44;;;;;;;12.43;3.53;;;20.70;1.00;;;;;;10508825;28;20432;-85
2022/06/18 20:39:06;;;;;;;6.35;2.63;;;20.60;1.00;;;;;;10507364;28;20293;-84
2022/06/18 20:44:28;;;;;;;4.05;3.10;;;20.60;1.00;;;;;;10507548;28;20201;-84
2022/06/18 20:49:49;;;;;;;5.03;2.80;;;20.60;1.00;;;;;;10507156;28;20203;-84
2022/06/18 21:00:53;;;;;;;7.68;3.15;;;20.40;1.00;;;;;;10465255;28;20243;-84
2022/06/18 21:06:14;;;;;;;9.23;3.25;;;20.30;1.00;;;;;;10465532;28;20482;-85
2022/06/18 21:11:36;;;;;;;3.88;2.30;;;20.20;1.00;;;;;;10468846;28;20211;-84
2022/06/18 21:16:58;;;;;;;5.07;2.70;;;20.20;1.00;;;;;;10519703;28;20278;-84
2022/06/18 21:22:21;;;;;;;4.22;2.90;;;20.10;1.00;;;;;;10519786;28;20227;-84
2022/06/18 21:27:42;;;;;;;6.60;2.78;;;20.10;1.00;;;;;;10541665;28;20216;-83
2022/06/18 21:38:46;;;;;;;5.05;2.67;;;20.00;1.00;;;;;;10561138;28;20226;-84
2022/06/18 21:44:08;;;;;;;5.10;2.70;;;19.90;1.00;;;;;;10533017;28;20198;-84
2022/06/18 21:49:30;;;;;;;4.32;2.72;;;19.80;1.00;;;;;;10532786;28;20240;-84
2022/06/18 21:54:54;;;;;;;5.43;3.75;;;19.80;1.00;;;;;;10482226;28;20235;-84
2022/06/18 22:00:29;;;;;;;5.80;2.88;;;19.70;1.00;;;;;;10499786;28;20293;-84
2022/06/18 22:05:51;;;;;;;5.28;3.10;;;19.60;1.00;;;;;;10490048;28;20241;-84
2022/06/18 22:11:13;;;;;;;3.50;2.90;;;19.50;1.00;;;;;;10504589;28;20371;-84
2022/06/18 22:17:20;;;;;;;5.07;3.42;;;19.50;1.00;;;;;;10518839;28;20194;-84
2022/06/18 22:22:17;;;;;;;5.05;3.40;;;19.50;1.00;;;;;;10503229;28;20237;-84
2022/06/18 22:27:38;;;;;;;6.78;3.47;;;19.40;1.00;;;;;;10524887;28;20261;-83
2022/06/18 22:33:00;;;;;;;5.65;3.38;;;19.20;1.00;;;;;;10546590;28;20187;-84
2022/06/18 22:38:22;;;;;;;5.68;3.30;;;19.20;1.00;;;;;;10545750;28;20225;-84
2022/06/18 22:43:44;;;;;;;4.93;3.20;;;19.20;1.00;;;;;;10531598;28;20198;-84
2022/06/18 22:49:10;;;;;;;5.90;3.35;;;19.10;1.00;;;;;;10553032;28;20265;-83
2022/06/18 22:54:44;;;;;;;6.22;3.72;;;19.00;1.00;;;;;;10494743;28;20288;-85
2022/06/18 23:00:07;;;;;;;5.63;3.85;;;18.90;1.00;;;;;;10504696;28;20309;-84
2022/06/18 23:05:34;;;;;;;5.45;3.45;;;18.90;1.00;;;;;;10524863;28;20218;-84
2022/06/18 23:10:56;;;;;;;5.20;3.28;;;18.80;1.00;;;;;;10510789;28;20210;-85
2022/06/18 23:16:20;;;;;;;6.63;3.97;;;18.70;2.50;;;;;;10531837;28;20199;-84
2022/06/18 23:21:42;;;;;;;6.57;3.75;;;18.70;3.60;;;;;;10510769;28;20235;-84
2022/06/18 23:27:04;;;;;;;10.60;3.70;;;18.70;7.50;;;;;;10540397;28;20191;-84
2022/06/18 23:32:30;;;;;;;3.72;3.15;;;18.60;10.60;;;;;;10558272;28;20228;-83
2022/06/18 23:37:55;;;;;;;5.53;2.92;;;18.60;15.10;;;;;;10560258;28;20198;-84
2022/06/18 23:43:17;;;;;;;3.50;3.03;;;18.70;13.10;;;;;;10551754;28;20259;-84
2022/06/18 23:48:39;;;;;;;7.15;3.35;;;18.70;12.50;;;;;;10551093;28;20198;-84
2022/06/18 23:54:01;;;;;;;8.57;3.60;;;18.60;17.60;;;;;;10529260;28;20207;-84
2022/06/18 23:59:23;;;;;;;5.07;2.97;;;18.50;27.00;;;;;;10510974;28;20253;-84
